sensor_id;sensor_type;location;lat;lon;timestamp;temperature;humidity
70986;DHT22;58645;43.068;25.610;2023-07-02T00:01:11;21.90;85.00
70986;DHT22;58645;43.068;25.610;2023-07-02T00:03:38;21.80;85.20
70986;DHT22;58645;43.068;25.610;2023-07-02T00:06:04;21.70;84.70
70986;DHT22;58645;43.068;25.610;2023-07-02T00:08:30;21.70;84.50
70986;DHT22;58645;43.068;25.610;2023-07-02T00:10:55;21.70;84.60
70986;DHT22;58645;43.068;25.610;2023-07-02T00:13:21;21.70;84.60
70986;DHT22;58645;43.068;25.610;2023-07-02T00:15:47;21.70;85.50
70986;DHT22;58645;43.068;25.610;2023-07-02T00:18:13;21.60;85.60
70986;DHT22;58645;43.068;25.610;2023-07-02T00:20:43;21.60;86.50
70986;DHT22;58645;43.068;25.610;2023-07-02T00:23:09;21.60;86.00
70986;DHT22;58645;43.068;25.610;2023-07-02T00:25:36;21.50;86.20
70986;DHT22;58645;43.068;25.610;2023-07-02T00:28:02;21.50;86.20
70986;DHT22;58645;43.068;25.610;2023-07-02T00:30:27;21.40;87.20
70986;DHT22;58645;43.068;25.610;2023-07-02T00:32:53;21.30;87.20
70986;DHT22;58645;43.068;25.610;2023-07-02T00:35:19;21.30;87.70
70986;DHT22;58645;43.068;25.610;2023-07-02T00:37:45;21.20;88.30
70986;DHT22;58645;43.068;25.610;2023-07-02T00:40:11;21.20;88.30
70986;DHT22;58645;43.068;25.610;2023-07-02T00:42:37;21.10;88.60
70986;DHT22;58645;43.068;25.610;2023-07-02T00:45:03;21.10;89.10
70986;DHT22;58645;43.068;25.610;2023-07-02T00:47:38;21.10;89.00
70986;DHT22;58645;43.068;25.610;2023-07-02T00:50:04;21.10;89.30
70986;DHT22;58645;43.068;25.610;2023-07-02T00:52:30;21.00;89.40
70986;DHT22;58645;43.068;25.610;2023-07-02T00:54:56;21.00;89.60
70986;DHT22;58645;43.068;25.610;2023-07-02T00:57:22;21.00;90.10
70986;DHT22;58645;43.068;25.610;2023-07-02T00:59:48;21.00;90.40
70986;DHT22;58645;43.068;25.610;2023-07-02T01:02:13;21.00;91.00
70986;DHT22;58645;43.068;25.610;2023-07-02T01:04:39;20.90;91.60
70986;DHT22;58645;43.068;25.610;2023-07-02T01:07:05;20.90;92.50
70986;DHT22;58645;43.068;25.610;2023-07-02T01:09:36;20.90;92.60
70986;DHT22;58645;43.068;25.610;2023-07-02T01:12:04;20.90;92.90
70986;DHT22;58645;43.068;25.610;2023-07-02T01:14:38;20.90;93.00
70986;DHT22;58645;43.068;25.610;2023-07-02T01:17:06;20.80;92.40
70986;DHT22;58645;43.068;25.610;2023-07-02T01:19:49;20.80;92.60
70986;DHT22;58645;43.068;25.610;2023-07-02T01:22:23;20.80;93.10
70986;DHT22;58645;43.068;25.610;2023-07-02T01:24:50;20.80;93.20
70986;DHT22;58645;43.068;25.610;2023-07-02T01:27:16;20.80;93.60
70986;DHT22;58645;43.068;25.610;2023-07-02T01:29:42;20.80;93.90
70986;DHT22;58645;43.068;25.610;2023-07-02T01:32:10;20.80;93.60
70986;DHT22;58645;43.068;25.610;2023-07-02T01:34:36;20.80;93.80
70986;DHT22;58645;43.068;25.610;2023-07-02T01:37:04;20.80;93.90
70986;DHT22;58645;43.068;25.610;2023-07-02T01:39:30;20.80;94.80
70986;DHT22;58645;43.068;25.610;2023-07-02T01:42:16;20.90;95.30
70986;DHT22;58645;43.068;25.610;2023-07-02T01:44:42;20.90;95.20
70986;DHT22;58645;43.068;25.610;2023-07-02T01:47:08;20.90;95.80
70986;DHT22;58645;43.068;25.610;2023-07-02T01:49:34;20.80;96.30
70986;DHT22;58645;43.068;25.610;2023-07-02T01:52:02;20.80;97.30
70986;DHT22;58645;43.068;25.610;2023-07-02T01:54:29;20.70;98.80
70986;DHT22;58645;43.068;25.610;2023-07-02T01:56:55;20.70;99.30
70986;DHT22;58645;43.068;25.610;2023-07-02T01:59:21;20.70;99.90
70986;DHT22;58645;43.068;25.610;2023-07-02T02:01:47;20.70;99.90
70986;DHT22;58645;43.068;25.610;2023-07-02T02:04:13;20.60;99.90
70986;DHT22;58645;43.068;25.610;2023-07-02T02:06:40;20.60;99.90
70986;DHT22;58645;43.068;25.610;2023-07-02T02:09:06;20.50;99.90
70986;DHT22;58645;43.068;25.610;2023-07-02T02:11:43;20.40;99.90
70986;DHT22;58645;43.068;25.610;2023-07-02T02:14:09;20.30;99.90
70986;DHT22;58645;43.068;25.610;2023-07-02T02:16:35;20.30;99.90
70986;DHT22;58645;43.068;25.610;2023-07-02T02:19:00;20.20;99.90
70986;DHT22;58645;43.068;25.610;2023-07-02T02:21:26;20.20;99.90
70986;DHT22;58645;43.068;25.610;2023-07-02T02:23:52;20.10;99.90
70986;DHT22;58645;43.068;25.610;2023-07-02T02:26:18;20.10;99.90
70986;DHT22;58645;43.068;25.610;2023-07-02T02:28:46;20.00;99.90
70986;DHT22;58645;43.068;25.610;2023-07-02T02:31:12;20.00;99.90
70986;DHT22;58645;43.068;25.610;2023-07-02T02:33:38;19.90;99.90
70986;DHT22;58645;43.068;25.610;2023-07-02T02:36:04;19.90;99.90
70986;DHT22;58645;43.068;25.610;2023-07-02T02:38:30;19.80;99.90
70986;DHT22;58645;43.068;25.610;2023-07-02T02:40:55;19.80;99.90
70986;DHT22;58645;43.068;25.610;2023-07-02T02:43:21;19.70;99.90
70986;DHT22;58645;43.068;25.610;2023-07-02T02:45:48;19.70;99.90
70986;DHT22;58645;43.068;25.610;2023-07-02T02:48:13;19.70;99.90
70986;DHT22;58645;43.068;25.610;2023-07-02T02:50:39;19.60;99.90
70986;DHT22;58645;43.068;25.610;2023-07-02T02:53:07;19.60;99.90
70986;DHT22;58645;43.068;25.610;2023-07-02T02:55:33;19.60;99.90
70986;DHT22;58645;43.068;25.610;2023-07-02T02:57:59;19.60;99.90
70986;DHT22;58645;43.068;25.610;2023-07-02T03:00:25;19.60;99.90
70986;DHT22;58645;43.068;25.610;2023-07-02T03:02:50;19.60;99.90
70986;DHT22;58645;43.068;25.610;2023-07-02T03:05:16;19.60;99.90
70986;DHT22;58645;43.068;25.610;2023-07-02T03:07:42;19.60;99.90
70986;DHT22;58645;43.068;25.610;2023-07-02T03:10:08;19.60;99.90
70986;DHT22;58645;43.068;25.610;2023-07-02T03:12:34;19.60;99.90
70986;DHT22;58645;43.068;25.610;2023-07-02T03:15:00;19.60;99.90
70986;DHT22;58645;43.068;25.610;2023-07-02T03:17:26;19.60;99.90
70986;DHT22;58645;43.068;25.610;2023-07-02T03:19:53;19.60;99.90
70986;DHT22;58645;43.068;25.610;2023-07-02T03:22:18;19.60;99.90
70986;DHT22;58645;43.068;25.610;2023-07-02T03:24:44;19.60;99.90
70986;DHT22;58645;43.068;25.610;2023-07-02T03:27:10;19.60;99.90
70986;DHT22;58645;43.068;25.610;2023-07-02T03:29:36;19.50;99.90
70986;DHT22;58645;43.068;25.610;2023-07-02T03:32:04;19.50;99.90
70986;DHT22;58645;43.068;25.610;2023-07-02T03:34:30;19.50;99.90
70986;DHT22;58645;43.068;25.610;2023-07-02T03:36:56;19.50;99.90
70986;DHT22;58645;43.068;25.610;2023-07-02T03:39:21;19.60;99.90
70986;DHT22;58645;43.068;25.610;2023-07-02T03:41:47;19.60;99.90
70986;DHT22;58645;43.068;25.610;2023-07-02T03:44:13;19.70;99.90
70986;DHT22;58645;43.068;25.610;2023-07-02T03:46:39;19.70;99.90
70986;DHT22;58645;43.068;25.610;2023-07-02T03:49:05;19.60;99.90
70986;DHT22;58645;43.068;25.610;2023-07-02T03:51:31;19.70;99.90
70986;DHT22;58645;43.068;25.610;2023-07-02T03:54:00;19.70;99.90
70986;DHT22;58645;43.068;25.610;2023-07-02T03:56:26;19.70;99.90
70986;DHT22;58645;43.068;25.610;2023-07-02T03:58:52;19.80;99.90
70986;DHT22;58645;43.068;25.610;2023-07-02T04:01:18;19.80;99.90
70986;DHT22;58645;43.068;25.610;2023-07-02T04:03:51;19.90;99.90
70986;DHT22;58645;43.068;25.610;2023-07-02T04:06:17;19.90;99.90
70986;DHT22;58645;43.068;25.610;2023-07-02T04:08:43;20.00;99.90
70986;DHT22;58645;43.068;25.610;2023-07-02T04:11:10;20.10;99.90
70986;DHT22;58645;43.068;25.610;2023-07-02T04:13:36;20.10;99.90
70986;DHT22;58645;43.068;25.610;2023-07-02T04:16:02;20.20;99.90
70986;DHT22;58645;43.068;25.610;2023-07-02T04:18:27;20.30;99.90
70986;DHT22;58645;43.068;25.610;2023-07-02T04:20:54;20.30;99.90
70986;DHT22;58645;43.068;25.610;2023-07-02T04:23:20;20.50;99.90
70986;DHT22;58645;43.068;25.610;2023-07-02T04:25:46;20.60;99.90
70986;DHT22;58645;43.068;25.610;2023-07-02T04:28:12;20.60;99.90
70986;DHT22;58645;43.068;25.610;2023-07-02T04:30:37;20.70;99.90
70986;DHT22;58645;43.068;25.610;2023-07-02T04:33:03;20.80;99.90
70986;DHT22;58645;43.068;25.610;2023-07-02T04:35:31;20.80;99.90
70986;DHT22;58645;43.068;25.610;2023-07-02T04:37:57;20.90;99.90
70986;DHT22;58645;43.068;25.610;2023-07-02T04:40:23;20.90;99.90
70986;DHT22;58645;43.068;25.610;2023-07-02T04:42:48;21.10;99.90
70986;DHT22;58645;43.068;25.610;2023-07-02T04:45:23;21.30;99.90
70986;DHT22;58645;43.068;25.610;2023-07-02T04:47:49;21.50;99.90
70986;DHT22;58645;43.068;25.610;2023-07-02T04:50:16;21.60;99.90
70986;DHT22;58645;43.068;25.610;2023-07-02T04:52:42;21.60;99.90
70986;DHT22;58645;43.068;25.610;2023-07-02T04:55:08;21.70;99.90
70986;DHT22;58645;43.068;25.610;2023-07-02T04:57:34;22.00;99.90
70986;DHT22;58645;43.068;25.610;2023-07-02T05:00:00;22.10;99.90
70986;DHT22;58645;43.068;25.610;2023-07-02T05:02:26;22.30;99.90
70986;DHT22;58645;43.068;25.610;2023-07-02T05:04:51;22.40;99.90
70986;DHT22;58645;43.068;25.610;2023-07-02T05:07:17;22.50;99.90
70986;DHT22;58645;43.068;25.610;2023-07-02T05:09:43;22.60;99.90
70986;DHT22;58645;43.068;25.610;2023-07-02T05:12:09;22.80;99.90
70986;DHT22;58645;43.068;25.610;2023-07-02T05:14:35;22.90;99.90
70986;DHT22;58645;43.068;25.610;2023-07-02T05:17:00;23.10;99.90
70986;DHT22;58645;43.068;25.610;2023-07-02T05:19:26;23.30;99.90
70986;DHT22;58645;43.068;25.610;2023-07-02T05:21:52;23.60;99.90
70986;DHT22;58645;43.068;25.610;2023-07-02T05:24:18;23.90;99.90
70986;DHT22;58645;43.068;25.610;2023-07-02T05:26:43;24.10;99.90
70986;DHT22;58645;43.068;25.610;2023-07-02T05:29:10;24.20;99.90
70986;DHT22;58645;43.068;25.610;2023-07-02T05:31:35;24.40;99.90
70986;DHT22;58645;43.068;25.610;2023-07-02T05:34:01;24.70;99.90
70986;DHT22;58645;43.068;25.610;2023-07-02T05:36:27;24.90;99.90
70986;DHT22;58645;43.068;25.610;2023-07-02T05:38:52;25.00;99.90
70986;DHT22;58645;43.068;25.610;2023-07-02T05:41:19;25.10;99.90
70986;DHT22;58645;43.068;25.610;2023-07-02T05:43:45;25.30;99.90
70986;DHT22;58645;43.068;25.610;2023-07-02T05:46:10;25.40;99.90
70986;DHT22;58645;43.068;25.610;2023-07-02T05:48:37;25.50;99.90
70986;DHT22;58645;43.068;25.610;2023-07-02T05:51:03;25.70;99.90
70986;DHT22;58645;43.068;25.610;2023-07-02T05:53:29;25.90;99.20
70986;DHT22;58645;43.068;25.610;2023-07-02T05:55:54;25.70;99.70
70986;DHT22;58645;43.068;25.610;2023-07-02T05:58:21;25.90;98.60
70986;DHT22;58645;43.068;25.610;2023-07-02T06:00:46;25.80;97.90
70986;DHT22;58645;43.068;25.610;2023-07-02T06:03:16;25.80;98.00
70986;DHT22;58645;43.068;25.610;2023-07-02T06:05:49;26.00;99.40
70986;DHT22;58645;43.068;25.610;2023-07-02T06:08:16;26.40;96.40
70986;DHT22;58645;43.068;25.610;2023-07-02T06:10:42;26.30;97.00
70986;DHT22;58645;43.068;25.610;2023-07-02T06:13:09;26.20;95.70
70986;DHT22;58645;43.068;25.610;2023-07-02T06:15:34;26.20;96.00
70986;DHT22;58645;43.068;25.610;2023-07-02T06:18:00;26.20;96.10
70986;DHT22;58645;43.068;25.610;2023-07-02T06:20:25;26.70;93.90
70986;DHT22;58645;43.068;25.610;2023-07-02T06:22:51;27.40;92.50
70986;DHT22;58645;43.068;25.610;2023-07-02T06:25:16;27.80;91.10
70986;DHT22;58645;43.068;25.610;2023-07-02T06:27:42;28.20;87.10
70986;DHT22;58645;43.068;25.610;2023-07-02T06:30:08;28.30;86.10
70986;DHT22;58645;43.068;25.610;2023-07-02T06:32:34;27.90;87.10
70986;DHT22;58645;43.068;25.610;2023-07-02T06:35:00;28.00;87.50
70986;DHT22;58645;43.068;25.610;2023-07-02T06:37:25;27.90;83.50
70986;DHT22;58645;43.068;25.610;2023-07-02T06:39:51;27.90;84.40
70986;DHT22;58645;43.068;25.610;2023-07-02T06:42:17;28.00;83.90
70986;DHT22;58645;43.068;25.610;2023-07-02T06:44:42;28.10;83.50
70986;DHT22;58645;43.068;25.610;2023-07-02T06:47:08;28.10;83.70
70986;DHT22;58645;43.068;25.610;2023-07-02T06:49:34;27.90;81.20
70986;DHT22;58645;43.068;25.610;2023-07-02T06:52:00;27.90;83.20
70986;DHT22;58645;43.068;25.610;2023-07-02T06:54:26;27.90;81.50
70986;DHT22;58645;43.068;25.610;2023-07-02T06:56:52;27.90;80.80
70986;DHT22;58645;43.068;25.610;2023-07-02T06:59:24;28.10;80.90
70986;DHT22;58645;43.068;25.610;2023-07-02T07:01:50;28.40;79.50
70986;DHT22;58645;43.068;25.610;2023-07-02T07:04:16;28.40;79.40
70986;DHT22;58645;43.068;25.610;2023-07-02T07:06:42;28.50;78.70
70986;DHT22;58645;43.068;25.610;2023-07-02T07:09:08;28.80;76.50
70986;DHT22;58645;43.068;25.610;2023-07-02T07:11:35;29.30;77.40
70986;DHT22;58645;43.068;25.610;2023-07-02T07:14:00;29.10;77.10
70986;DHT22;58645;43.068;25.610;2023-07-02T07:16:26;28.90;75.90
70986;DHT22;58645;43.068;25.610;2023-07-02T07:18:52;28.80;76.00
70986;DHT22;58645;43.068;25.610;2023-07-02T07:21:17;28.80;77.10
70986;DHT22;58645;43.068;25.610;2023-07-02T07:23:43;28.70;77.20
70986;DHT22;58645;43.068;25.610;2023-07-02T07:26:09;28.90;77.00
70986;DHT22;58645;43.068;25.610;2023-07-02T07:28:35;29.10;76.70
70986;DHT22;58645;43.068;25.610;2023-07-02T07:31:01;29.20;75.80
70986;DHT22;58645;43.068;25.610;2023-07-02T07:33:27;29.20;75.80
70986;DHT22;58645;43.068;25.610;2023-07-02T07:35:53;29.00;76.50
70986;DHT22;58645;43.068;25.610;2023-07-02T07:38:18;29.00;76.00
70986;DHT22;58645;43.068;25.610;2023-07-02T07:40:44;28.70;76.30
70986;DHT22;58645;43.068;25.610;2023-07-02T07:43:10;28.50;78.60
70986;DHT22;58645;43.068;25.610;2023-07-02T07:45:35;28.30;78.50
70986;DHT22;58645;43.068;25.610;2023-07-02T07:48:01;28.10;79.90
70986;DHT22;58645;43.068;25.610;2023-07-02T07:50:28;27.90;78.70
70986;DHT22;58645;43.068;25.610;2023-07-02T07:52:53;27.80;79.40
70986;DHT22;58645;43.068;25.610;2023-07-02T07:55:19;27.50;79.60
70986;DHT22;58645;43.068;25.610;2023-07-02T07:57:45;27.30;80.30
70986;DHT22;58645;43.068;25.610;2023-07-02T08:00:11;27.20;81.00
70986;DHT22;58645;43.068;25.610;2023-07-02T08:02:37;27.10;81.00
70986;DHT22;58645;43.068;25.610;2023-07-02T08:05:04;26.90;80.70
70986;DHT22;58645;43.068;25.610;2023-07-02T08:07:31;26.90;81.20
70986;DHT22;58645;43.068;25.610;2023-07-02T08:09:57;26.90;80.70
70986;DHT22;58645;43.068;25.610;2023-07-02T08:12:23;26.80;81.60
70986;DHT22;58645;43.068;25.610;2023-07-02T08:14:48;26.80;83.10
70986;DHT22;58645;43.068;25.610;2023-07-02T08:17:14;26.80;82.90
70986;DHT22;58645;43.068;25.610;2023-07-02T08:19:40;26.90;83.40
70986;DHT22;58645;43.068;25.610;2023-07-02T08:22:06;26.90;85.90
70986;DHT22;58645;43.068;25.610;2023-07-02T08:24:31;26.80;84.70
70986;DHT22;58645;43.068;25.610;2023-07-02T08:26:58;26.70;86.80
70986;DHT22;58645;43.068;25.610;2023-07-02T08:29:23;26.80;84.60
70986;DHT22;58645;43.068;25.610;2023-07-02T08:31:49;26.90;86.70
70986;DHT22;58645;43.068;25.610;2023-07-02T08:34:15;27.00;89.60
70986;DHT22;58645;43.068;25.610;2023-07-02T08:36:41;27.00;88.40
70986;DHT22;58645;43.068;25.610;2023-07-02T08:39:09;27.10;85.20
70986;DHT22;58645;43.068;25.610;2023-07-02T08:41:44;27.20;83.80
70986;DHT22;58645;43.068;25.610;2023-07-02T08:44:16;27.30;81.90
70986;DHT22;58645;43.068;25.610;2023-07-02T08:46:43;27.20;82.70
70986;DHT22;58645;43.068;25.610;2023-07-02T08:49:09;27.10;84.00
70986;DHT22;58645;43.068;25.610;2023-07-02T08:51:35;27.10;85.60
70986;DHT22;58645;43.068;25.610;2023-07-02T08:54:02;27.10;84.00
70986;DHT22;58645;43.068;25.610;2023-07-02T08:56:28;27.20;80.00
70986;DHT22;58645;43.068;25.610;2023-07-02T08:58:54;27.30;82.70
70986;DHT22;58645;43.068;25.610;2023-07-02T09:01:20;27.40;82.10
70986;DHT22;58645;43.068;25.610;2023-07-02T09:03:46;27.50;83.00
70986;DHT22;58645;43.068;25.610;2023-07-02T09:06:12;27.60;78.80
70986;DHT22;58645;43.068;25.610;2023-07-02T09:08:38;27.90;81.10
70986;DHT22;58645;43.068;25.610;2023-07-02T09:11:15;28.30;77.30
70986;DHT22;58645;43.068;25.610;2023-07-02T09:16:09;28.90;76.00
70986;DHT22;58645;43.068;25.610;2023-07-02T09:19:04;28.90;75.50
70986;DHT22;58645;43.068;25.610;2023-07-02T09:21:43;28.70;77.90
70986;DHT22;58645;43.068;25.610;2023-07-02T09:24:17;28.80;77.90
70986;DHT22;58645;43.068;25.610;2023-07-02T09:26:49;28.50;75.30
70986;DHT22;58645;43.068;25.610;2023-07-02T09:29:28;28.50;76.00
70986;DHT22;58645;43.068;25.610;2023-07-02T09:31:56;28.10;75.20
70986;DHT22;58645;43.068;25.610;2023-07-02T09:34:27;28.60;73.20
70986;DHT22;58645;43.068;25.610;2023-07-02T09:36:54;28.70;71.90
70986;DHT22;58645;43.068;25.610;2023-07-02T09:39:25;28.80;70.60
70986;DHT22;58645;43.068;25.610;2023-07-02T09:41:51;28.90;71.40
70986;DHT22;58645;43.068;25.610;2023-07-02T09:44:18;29.10;72.20
70986;DHT22;58645;43.068;25.610;2023-07-02T09:47:04;29.20;70.60
70986;DHT22;58645;43.068;25.610;2023-07-02T09:49:45;29.30;66.90
70986;DHT22;58645;43.068;25.610;2023-07-02T09:52:14;29.40;69.20
70986;DHT22;58645;43.068;25.610;2023-07-02T09:54:41;29.20;69.10
70986;DHT22;58645;43.068;25.610;2023-07-02T09:57:07;29.00;68.60
70986;DHT22;58645;43.068;25.610;2023-07-02T09:59:33;29.20;69.60
70986;DHT22;58645;43.068;25.610;2023-07-02T10:01:59;29.40;70.30
70986;DHT22;58645;43.068;25.610;2023-07-02T10:04:25;29.80;66.00
70986;DHT22;58645;43.068;25.610;2023-07-02T10:06:55;30.00;62.30
70986;DHT22;58645;43.068;25.610;2023-07-02T10:09:37;30.40;61.80
70986;DHT22;58645;43.068;25.610;2023-07-02T10:14:47;30.40;57.50
70986;DHT22;58645;43.068;25.610;2023-07-02T10:17:30;30.30;59.30
70986;DHT22;58645;43.068;25.610;2023-07-02T10:20:04;30.40;58.30
70986;DHT22;58645;43.068;25.610;2023-07-02T10:23:03;30.80;56.70
70986;DHT22;58645;43.068;25.610;2023-07-02T10:25:36;30.70;57.20
70986;DHT22;58645;43.068;25.610;2023-07-02T10:28:23;30.60;57.40
70986;DHT22;58645;43.068;25.610;2023-07-02T10:30:52;30.60;56.30
70986;DHT22;58645;43.068;25.610;2023-07-02T10:33:19;30.80;56.80
70986;DHT22;58645;43.068;25.610;2023-07-02T10:35:47;31.50;57.40
70986;DHT22;58645;43.068;25.610;2023-07-02T10:38:24;32.00;56.10
70986;DHT22;58645;43.068;25.610;2023-07-02T10:40:58;32.50;53.50
70986;DHT22;58645;43.068;25.610;2023-07-02T10:43:31;33.20;54.40
70986;DHT22;58645;43.068;25.610;2023-07-02T10:45:58;33.80;52.40
70986;DHT22;58645;43.068;25.610;2023-07-02T10:48:28;34.20;52.50
70986;DHT22;58645;43.068;25.610;2023-07-02T10:50:53;34.30;52.00
70986;DHT22;58645;43.068;25.610;2023-07-02T10:53:20;34.40;52.10
70986;DHT22;58645;43.068;25.610;2023-07-02T10:55:52;34.50;50.00
70986;DHT22;58645;43.068;25.610;2023-07-02T10:58:19;34.20;52.00
70986;DHT22;58645;43.068;25.610;2023-07-02T11:00:49;34.20;50.20
70986;DHT22;58645;43.068;25.610;2023-07-02T11:03:26;34.30;51.20
70986;DHT22;58645;43.068;25.610;2023-07-02T11:05:52;33.90;50.00
70986;DHT22;58645;43.068;25.610;2023-07-02T11:08:19;33.70;49.90
70986;DHT22;58645;43.068;25.610;2023-07-02T11:10:50;34.10;50.20
70986;DHT22;58645;43.068;25.610;2023-07-02T11:13:18;34.50;49.50
70986;DHT22;58645;43.068;25.610;2023-07-02T11:15:45;34.60;50.20
70986;DHT22;58645;43.068;25.610;2023-07-02T11:18:15;34.90;47.90
70986;DHT22;58645;43.068;25.610;2023-07-02T11:20:42;35.10;48.10
70986;DHT22;58645;43.068;25.610;2023-07-02T11:23:24;35.50;47.10
70986;DHT22;58645;43.068;25.610;2023-07-02T11:26:01;35.00;47.70
70986;DHT22;58645;43.068;25.610;2023-07-02T11:28:27;34.90;46.70
70986;DHT22;58645;43.068;25.610;2023-07-02T11:30:54;34.90;46.90
70986;DHT22;58645;43.068;25.610;2023-07-02T11:33:36;34.60;47.40
70986;DHT22;58645;43.068;25.610;2023-07-02T11:36:04;34.50;48.60
70986;DHT22;58645;43.068;25.610;2023-07-02T11:38:29;34.40;48.10
70986;DHT22;58645;43.068;25.610;2023-07-02T11:40:55;34.00;48.90
70986;DHT22;58645;43.068;25.610;2023-07-02T11:43:21;33.90;49.00
70986;DHT22;58645;43.068;25.610;2023-07-02T11:45:47;33.40;48.80
70986;DHT22;58645;43.068;25.610;2023-07-02T11:48:12;33.30;48.40
70986;DHT22;58645;43.068;25.610;2023-07-02T11:50:38;33.20;47.40
70986;DHT22;58645;43.068;25.610;2023-07-02T11:53:04;33.40;48.10
70986;DHT22;58645;43.068;25.610;2023-07-02T11:55:30;33.80;46.70
70986;DHT22;58645;43.068;25.610;2023-07-02T11:57:56;33.90;46.40
70986;DHT22;58645;43.068;25.610;2023-07-02T12:00:21;34.10;47.70
70986;DHT22;58645;43.068;25.610;2023-07-02T12:02:48;34.10;46.20
70986;DHT22;58645;43.068;25.610;2023-07-02T12:05:14;33.20;47.50
70986;DHT22;58645;43.068;25.610;2023-07-02T12:07:40;32.60;49.20
70986;DHT22;58645;43.068;25.610;2023-07-02T12:10:07;32.10;51.00
70986;DHT22;58645;43.068;25.610;2023-07-02T12:12:33;31.80;51.10
70986;DHT22;58645;43.068;25.610;2023-07-02T12:14:58;31.50;52.00
70986;DHT22;58645;43.068;25.610;2023-07-02T12:17:24;31.60;53.10
70986;DHT22;58645;43.068;25.610;2023-07-02T12:19:50;31.60;51.60
70986;DHT22;58645;43.068;25.610;2023-07-02T12:22:16;31.60;53.00
70986;DHT22;58645;43.068;25.610;2023-07-02T12:24:43;31.20;53.50
70986;DHT22;58645;43.068;25.610;2023-07-02T12:27:09;31.10;54.40
70986;DHT22;58645;43.068;25.610;2023-07-02T12:29:37;31.20;53.80
70986;DHT22;58645;43.068;25.610;2023-07-02T12:32:03;31.70;54.10
70986;DHT22;58645;43.068;25.610;2023-07-02T12:34:30;32.30;51.60
70986;DHT22;58645;43.068;25.610;2023-07-02T12:36:56;32.30;51.10
70986;DHT22;58645;43.068;25.610;2023-07-02T12:39:22;32.30;50.90
70986;DHT22;58645;43.068;25.610;2023-07-02T12:41:47;32.10;50.50
70986;DHT22;58645;43.068;25.610;2023-07-02T12:44:13;32.00;50.90
70986;DHT22;58645;43.068;25.610;2023-07-02T12:46:39;32.20;49.70
70986;DHT22;58645;43.068;25.610;2023-07-02T12:49:05;32.30;50.40
70986;DHT22;58645;43.068;25.610;2023-07-02T12:51:31;32.00;50.50
70986;DHT22;58645;43.068;25.610;2023-07-02T12:53:56;32.60;49.70
70986;DHT22;58645;43.068;25.610;2023-07-02T12:56:22;32.80;48.10
70986;DHT22;58645;43.068;25.610;2023-07-02T12:58:48;32.80;50.20
70986;DHT22;58645;43.068;25.610;2023-07-02T13:01:13;32.60;49.40
70986;DHT22;58645;43.068;25.610;2023-07-02T13:03:45;32.40;50.60
70986;DHT22;58645;43.068;25.610;2023-07-02T13:06:11;31.90;50.70
70986;DHT22;58645;43.068;25.610;2023-07-02T13:08:36;31.60;51.20
70986;DHT22;58645;43.068;25.610;2023-07-02T13:11:02;31.10;53.10
70986;DHT22;58645;43.068;25.610;2023-07-02T13:13:28;31.00;55.10
70986;DHT22;58645;43.068;25.610;2023-07-02T13:15:54;30.90;54.20
70986;DHT22;58645;43.068;25.610;2023-07-02T13:18:20;30.80;55.00
70986;DHT22;58645;43.068;25.610;2023-07-02T13:20:46;30.90;55.10
70986;DHT22;58645;43.068;25.610;2023-07-02T13:23:12;30.80;55.10
70986;DHT22;58645;43.068;25.610;2023-07-02T13:25:37;30.70;55.60
70986;DHT22;58645;43.068;25.610;2023-07-02T13:28:03;30.70;55.20
70986;DHT22;58645;43.068;25.610;2023-07-02T13:30:29;30.70;56.30
70986;DHT22;58645;43.068;25.610;2023-07-02T13:32:56;30.60;55.90
70986;DHT22;58645;43.068;25.610;2023-07-02T13:35:22;30.70;56.00
70986;DHT22;58645;43.068;25.610;2023-07-02T13:37:48;30.70;55.00
70986;DHT22;58645;43.068;25.610;2023-07-02T13:40:14;30.50;55.10
70986;DHT22;58645;43.068;25.610;2023-07-02T13:42:41;30.50;56.00
70986;DHT22;58645;43.068;25.610;2023-07-02T13:45:08;30.40;56.10
70986;DHT22;58645;43.068;25.610;2023-07-02T13:47:35;30.40;55.70
70986;DHT22;58645;43.068;25.610;2023-07-02T13:50:02;30.20;56.40
70986;DHT22;58645;43.068;25.610;2023-07-02T13:52:32;30.10;56.20
70986;DHT22;58645;43.068;25.610;2023-07-02T13:54:57;30.00;58.70
70986;DHT22;58645;43.068;25.610;2023-07-02T13:57:24;29.80;60.60
70986;DHT22;58645;43.068;25.610;2023-07-02T13:59:50;29.70;61.00
70986;DHT22;58645;43.068;25.610;2023-07-02T14:02:16;29.50;62.50
70986;DHT22;58645;43.068;25.610;2023-07-02T14:04:42;29.50;62.60
70986;DHT22;58645;43.068;25.610;2023-07-02T14:07:07;29.50;62.10
70986;DHT22;58645;43.068;25.610;2023-07-02T14:09:33;29.50;61.60
70986;DHT22;58645;43.068;25.610;2023-07-02T14:11:59;29.40;62.00
70986;DHT22;58645;43.068;25.610;2023-07-02T14:14:25;29.40;61.80
70986;DHT22;58645;43.068;25.610;2023-07-02T14:16:50;29.40;62.80
70986;DHT22;58645;43.068;25.610;2023-07-02T14:19:16;29.40;62.00
70986;DHT22;58645;43.068;25.610;2023-07-02T14:21:42;29.40;62.00
70986;DHT22;58645;43.068;25.610;2023-07-02T14:24:08;29.40;61.90
70986;DHT22;58645;43.068;25.610;2023-07-02T14:26:34;29.40;60.40
70986;DHT22;58645;43.068;25.610;2023-07-02T14:29:00;29.30;59.80
70986;DHT22;58645;43.068;25.610;2023-07-02T14:31:26;29.30;60.00
70986;DHT22;58645;43.068;25.610;2023-07-02T14:33:52;29.20;60.70
70986;DHT22;58645;43.068;25.610;2023-07-02T14:36:18;29.10;60.70
70986;DHT22;58645;43.068;25.610;2023-07-02T14:38:43;29.10;60.80
70986;DHT22;58645;43.068;25.610;2023-07-02T14:41:09;29.10;61.00
70986;DHT22;58645;43.068;25.610;2023-07-02T14:43:35;29.10;61.40
70986;DHT22;58645;43.068;25.610;2023-07-02T14:46:02;29.00;59.70
70986;DHT22;58645;43.068;25.610;2023-07-02T14:48:28;28.80;59.40
70986;DHT22;58645;43.068;25.610;2023-07-02T14:50:56;28.80;58.40
70986;DHT22;58645;43.068;25.610;2023-07-02T14:53:23;28.70;59.00
70986;DHT22;58645;43.068;25.610;2023-07-02T14:55:49;28.40;59.10
70986;DHT22;58645;43.068;25.610;2023-07-02T14:58:17;28.40;59.60
70986;DHT22;58645;43.068;25.610;2023-07-02T15:00:48;28.30;60.90
70986;DHT22;58645;43.068;25.610;2023-07-02T15:03:14;28.30;61.50
70986;DHT22;58645;43.068;25.610;2023-07-02T15:05:40;28.20;61.20
70986;DHT22;58645;43.068;25.610;2023-07-02T15:08:08;28.10;61.40
70986;DHT22;58645;43.068;25.610;2023-07-02T15:10:35;28.00;59.40
70986;DHT22;58645;43.068;25.610;2023-07-02T15:13:05;28.10;61.00
70986;DHT22;58645;43.068;25.610;2023-07-02T15:15:30;28.00;62.20
70986;DHT22;58645;43.068;25.610;2023-07-02T15:17:56;28.00;62.70
70986;DHT22;58645;43.068;25.610;2023-07-02T15:20:22;28.00;63.90